createdAt,value
2022-10-06T00:00:04.973Z,100.00
2022-10-06T00:02:53.435Z,100.00
2022-10-06T00:05:21.442Z,100.00
2022-10-06T00:07:50.662Z,100.00
2022-10-06T00:10:18.695Z,100.00
2022-10-06T00:12:49.254Z,100.00
2022-10-06T00:15:20.703Z,100.00
2022-10-06T00:17:49.293Z,100.00
2022-10-06T00:20:18.705Z,100.00
2022-10-06T00:22:48.912Z,100.00
2022-10-06T00:25:19.925Z,100.00
2022-10-06T00:27:50.095Z,100.00
2022-10-06T00:30:21.374Z,100.00
2022-10-06T00:32:58.808Z,100.00
2022-10-06T00:35:29.108Z,100.00
2022-10-06T00:37:57.205Z,100.00
2022-10-06T00:40:25.633Z,100.00
2022-10-06T00:42:59.162Z,100.00
2022-10-06T00:45:34.883Z,100.00
2022-10-06T00:48:22.286Z,100.00
2022-10-06T00:50:57.905Z,100.00
2022-10-06T00:53:30.180Z,100.00
2022-10-06T00:55:59.878Z,100.00
2022-10-06T00:58:28.386Z,100.00
2022-10-06T01:00:57.336Z,100.00
2022-10-06T01:03:45.503Z,100.00
2022-10-06T01:06:14.146Z,100.00
2022-10-06T01:08:42.534Z,100.00
2022-10-06T01:11:14.279Z,100.00
2022-10-06T01:13:44.769Z,100.00
2022-10-06T01:16:23.445Z,100.00
2022-10-06T01:18:53.853Z,100.00
2022-10-06T01:21:44.923Z,100.00
2022-10-06T01:24:12.723Z,100.00
2022-10-06T01:26:42.675Z,100.00
2022-10-06T01:29:11.307Z,100.00
2022-10-06T01:31:39.934Z,100.00
2022-10-06T01:34:08.348Z,100.00
2022-10-06T01:36:37.018Z,100.00
2022-10-06T01:39:05.313Z,100.00
2022-10-06T01:41:34.919Z,100.00
2022-10-06T01:44:03.584Z,100.00
2022-10-06T01:46:32.381Z,100.00
2022-10-06T01:49:00.908Z,100.00
2022-10-06T01:51:30.213Z,100.00
2022-10-06T01:53:59.770Z,100.00
2022-10-06T01:56:28.532Z,100.00
2022-10-06T01:58:56.336Z,100.00
2022-10-06T02:01:25.425Z,100.00
2022-10-06T02:03:56.234Z,100.00
2022-10-06T02:06:24.670Z,100.00
2022-10-06T02:08:52.743Z,100.00
2022-10-06T02:11:21.178Z,100.00
2022-10-06T02:13:51.530Z,100.00
2022-10-06T02:16:20.359Z,100.00
2022-10-06T02:18:49.081Z,100.00
2022-10-06T02:21:21.942Z,100.00
2022-10-06T02:23:52.526Z,100.00
2022-10-06T02:26:21.811Z,100.00
2022-10-06T02:28:52.184Z,100.00
2022-10-06T02:31:24.906Z,100.00
2022-10-06T02:33:53.393Z,100.00
2022-10-06T02:36:22.893Z,100.00
2022-10-06T02:38:50.723Z,100.00
2022-10-06T02:41:20.051Z,100.00
2022-10-06T02:43:48.755Z,100.00
2022-10-06T02:46:16.773Z,100.00
2022-10-06T02:48:49.679Z,100.00
2022-10-06T02:51:19.803Z,100.00
2022-10-06T02:53:49.441Z,100.00
2022-10-06T02:56:20.460Z,100.00
2022-10-06T02:58:49.890Z,100.00
2022-10-06T03:01:30.787Z,100.00
2022-10-06T03:04:02.010Z,100.00
2022-10-06T03:06:31.213Z,100.00
2022-10-06T03:09:12.400Z,100.00
2022-10-06T03:11:43.908Z,100.00
2022-10-06T03:14:32.073Z,100.00
2022-10-06T03:17:00.580Z,100.00
2022-10-06T03:19:30.221Z,100.00
2022-10-06T03:21:59.139Z,100.00
2022-10-06T03:24:37.370Z,100.00
2022-10-06T03:27:06.266Z,100.00
2022-10-06T03:29:35.685Z,100.00
2022-10-06T03:32:04.647Z,100.00
2022-10-06T03:34:34.160Z,100.00
2022-10-06T03:37:05.448Z,100.00
2022-10-06T03:39:34.449Z,100.00
2022-10-06T03:42:03.043Z,100.00
2022-10-06T03:44:34.894Z,100.00
2022-10-06T03:47:04.702Z,100.00
2022-10-06T03:49:33.840Z,100.00
2022-10-06T03:52:01.749Z,100.00
2022-10-06T03:54:34.273Z,100.00
2022-10-06T03:57:02.551Z,100.00
2022-10-06T03:59:34.514Z,100.00
2022-10-06T04:02:05.927Z,100.00
2022-10-06T04:04:38.668Z,100.00
2022-10-06T04:07:12.081Z,100.00
2022-10-06T04:09:40.818Z,100.00
2022-10-06T04:12:11.325Z,100.00
2022-10-06T04:14:40.807Z,100.00
2022-10-06T04:17:09.479Z,100.00
2022-10-06T04:19:40.789Z,100.00
2022-10-06T04:22:08.697Z,100.00
2022-10-06T04:24:36.711Z,100.00
2022-10-06T04:27:24.547Z,100.00
2022-10-06T04:30:04.134Z,100.00
2022-10-06T04:32:33.791Z,100.00
2022-10-06T04:35:02.497Z,100.00
2022-10-06T04:37:31.171Z,100.00
2022-10-06T04:40:00.324Z,100.00
2022-10-06T04:42:34.701Z,100.00
2022-10-06T04:45:07.505Z,100.00
2022-10-06T04:47:36.678Z,100.00
2022-10-06T04:50:05.662Z,100.00
2022-10-06T04:52:34.341Z,100.00
2022-10-06T04:55:04.087Z,100.00
2022-10-06T04:57:31.914Z,100.00
2022-10-06T05:00:19.286Z,100.00
2022-10-06T05:02:48.879Z,100.00
2022-10-06T05:05:17.225Z,100.00
2022-10-06T05:07:46.186Z,100.00
2022-10-06T05:10:15.355Z,100.00
2022-10-06T05:12:44.148Z,100.00
2022-10-06T05:15:12.628Z,100.00
2022-10-06T05:17:40.883Z,100.00
2022-10-06T05:20:11.730Z,100.00
2022-10-06T05:22:40.142Z,100.00
2022-10-06T05:25:09.034Z,100.00
2022-10-06T05:27:37.330Z,100.00
2022-10-06T05:30:05.900Z,100.00
2022-10-06T05:32:36.268Z,100.00
2022-10-06T05:35:06.295Z,100.00
2022-10-06T05:37:35.282Z,100.00
2022-10-06T05:40:03.766Z,100.00
2022-10-06T05:42:32.035Z,100.00
2022-10-06T05:45:02.026Z,100.00
2022-10-06T05:47:33.285Z,100.00
2022-10-06T05:50:02.240Z,100.00
2022-10-06T05:52:32.460Z,100.00
2022-10-06T05:55:00.399Z,100.00
2022-10-06T05:57:28.887Z,100.00
2022-10-06T05:59:59.234Z,100.00
2022-10-06T06:02:32.148Z,100.00
2022-10-06T06:04:59.834Z,100.00
2022-10-06T06:07:28.330Z,100.00
2022-10-06T06:09:56.921Z,100.00
2022-10-06T06:12:24.915Z,100.00
2022-10-06T06:15:24.654Z,100.00
2022-10-06T06:18:01.314Z,100.00
2022-10-06T06:20:30.012Z,100.00
2022-10-06T06:22:57.965Z,100.00
2022-10-06T06:25:28.713Z,100.00
2022-10-06T06:27:57.103Z,100.00
2022-10-06T06:30:26.116Z,100.00
2022-10-06T06:32:58.722Z,100.00
2022-10-06T06:35:27.373Z,100.00
2022-10-06T06:37:55.741Z,100.00
2022-10-06T06:40:24.185Z,100.00
2022-10-06T06:42:53.915Z,100.00
2022-10-06T06:45:40.793Z,100.00
2022-10-06T06:48:24.944Z,100.00
2022-10-06T06:50:58.624Z,100.00
2022-10-06T06:53:28.375Z,100.00
2022-10-06T06:55:59.818Z,100.00
2022-10-06T06:58:28.218Z,100.00
2022-10-06T07:01:04.995Z,100.00
2022-10-06T07:03:56.031Z,100.00
2022-10-06T07:06:28.208Z,100.00
2022-10-06T07:08:59.353Z,100.00
2022-10-06T07:11:30.775Z,100.00
2022-10-06T07:14:04.524Z,100.00
2022-10-06T07:16:51.703Z,100.00
2022-10-06T07:19:40.115Z,100.00
2022-10-06T07:22:28.290Z,100.00
2022-10-06T07:25:07.270Z,100.00
2022-10-06T07:27:53.584Z,100.00
2022-10-06T07:30:30.132Z,100.00
2022-10-06T07:33:05.550Z,100.00
2022-10-06T07:35:34.955Z,100.00
2022-10-06T07:38:08.269Z,100.00
2022-10-06T07:41:18.003Z,100.00
2022-10-06T07:43:44.769Z,100.00
2022-10-06T07:46:14.368Z,100.00
2022-10-06T07:48:56.321Z,100.00
2022-10-06T07:51:25.405Z,100.00
2022-10-06T07:53:54.217Z,100.00
2022-10-06T07:56:28.631Z,100.00
2022-10-06T07:58:59.303Z,100.00
2022-10-06T08:01:29.892Z,100.00
2022-10-06T08:03:58.420Z,100.00
2022-10-06T08:06:26.303Z,100.00
2022-10-06T08:08:55.660Z,100.00
2022-10-06T08:11:23.524Z,100.00
2022-10-06T08:13:52.199Z,100.00
2022-10-06T08:16:22.267Z,100.00
2022-10-06T08:18:54.498Z,100.00
2022-10-06T08:21:24.078Z,100.00
2022-10-06T08:23:54.449Z,100.00
2022-10-06T08:26:23.359Z,100.00
2022-10-06T08:28:53.599Z,100.00
2022-10-06T08:31:23.258Z,100.00
2022-10-06T08:33:56.351Z,100.00
2022-10-06T08:36:31.578Z,100.00
2022-10-06T08:39:00.965Z,100.00
2022-10-06T08:41:32.820Z,100.00
2022-10-06T08:44:18.894Z,100.00
2022-10-06T08:47:00.889Z,100.00
2022-10-06T08:49:59.590Z,100.00
2022-10-06T08:52:59.402Z,100.00
2022-10-06T08:55:43.090Z,100.00
2022-10-06T08:58:42.530Z,100.00
2022-10-06T09:01:20.262Z,100.00
2022-10-06T09:03:49.767Z,100.00
2022-10-06T09:06:49.125Z,100.00
2022-10-06T09:09:25.508Z,100.00
2022-10-06T09:12:11.956Z,100.00
2022-10-06T09:14:43.623Z,100.00
2022-10-06T09:17:18.923Z,100.00
2022-10-06T09:19:55.763Z,100.00
2022-10-06T09:22:24.222Z,100.00
2022-10-06T09:24:56.919Z,100.00
2022-10-06T09:27:33.734Z,100.00
2022-10-06T09:30:04.866Z,100.00
2022-10-06T09:32:33.486Z,100.00
2022-10-06T09:35:03.049Z,100.00
2022-10-06T09:38:09.215Z,100.00
2022-10-06T09:40:42.673Z,100.00
2022-10-06T09:43:29.797Z,100.00
2022-10-06T09:46:22.108Z,100.00
2022-10-06T09:49:07.523Z,100.00
2022-10-06T09:51:37.261Z,100.00
2022-10-06T09:54:15.589Z,100.00
2022-10-06T09:56:45.329Z,100.00
2022-10-06T09:59:22.332Z,100.00
2022-10-06T10:01:55.276Z,100.00
2022-10-06T10:04:27.761Z,100.00
2022-10-06T10:07:15.548Z,100.00
2022-10-06T10:09:44.311Z,100.00
2022-10-06T10:12:33.520Z,100.00
2022-10-06T10:15:21.758Z,100.00
2022-10-06T10:17:54.125Z,100.00
2022-10-06T10:20:22.340Z,100.00
2022-10-06T10:22:50.455Z,100.00
2022-10-06T10:25:55.558Z,100.00
2022-10-06T10:28:31.241Z,100.00
2022-10-06T10:31:23.494Z,100.00
2022-10-06T10:34:12.908Z,100.00
2022-10-06T10:36:58.233Z,100.00
2022-10-06T10:39:56.427Z,100.00
2022-10-06T10:42:46.463Z,100.00
2022-10-06T10:45:20.724Z,100.00
2022-10-06T10:47:49.821Z,100.00
2022-10-06T10:50:59.924Z,100.00
2022-10-06T10:53:41.769Z,100.00
2022-10-06T10:56:12.754Z,100.00
2022-10-06T10:58:43.518Z,100.00
2022-10-06T11:01:42.827Z,100.00
2022-10-06T11:04:14.048Z,100.00
2022-10-06T11:07:07.443Z,100.00
2022-10-06T11:09:35.331Z,100.00
2022-10-06T11:12:21.924Z,100.00
2022-10-06T11:15:19.825Z,100.00
2022-10-06T11:17:50.480Z,100.00
2022-10-06T11:20:39.511Z,100.00
2022-10-06T11:23:32.935Z,100.00
2022-10-06T11:26:10.476Z,100.00
2022-10-06T11:28:54.060Z,100.00
2022-10-06T11:31:51.848Z,100.00
2022-10-06T11:34:20.356Z,100.00
2022-10-06T11:37:16.661Z,100.00
2022-10-06T11:40:17.764Z,98.06
2022-10-06T11:42:59.169Z,100.00
2022-10-06T11:45:35.817Z,100.00
2022-10-06T11:48:36.103Z,100.00
2022-10-06T11:51:26.135Z,100.00
2022-10-06T11:53:55.872Z,100.00
2022-10-06T11:56:37.109Z,100.00
2022-10-06T11:59:11.456Z,100.00
2022-10-06T12:01:45.348Z,100.00
2022-10-06T12:04:18.530Z,100.00
2022-10-06T12:06:55.626Z,100.00
2022-10-06T12:09:26.682Z,99.67
2022-10-06T12:12:19.111Z,97.75
2022-10-06T12:18:10.422Z,99.64
2022-10-06T12:20:47.739Z,98.27
2022-10-06T12:23:25.260Z,98.13
2022-10-06T12:26:17.505Z,97.59
2022-10-06T12:28:53.640Z,99.70
2022-10-06T12:31:47.074Z,98.04
2022-10-06T12:34:39.618Z,100.00
2022-10-06T12:37:29.368Z,100.00
2022-10-06T12:40:35.021Z,100.00
2022-10-06T12:43:34.984Z,100.00
2022-10-06T12:46:08.535Z,100.00
2022-10-06T12:48:49.920Z,100.00
2022-10-06T12:51:39.312Z,100.00
2022-10-06T12:54:10.740Z,98.58
2022-10-06T12:56:43.458Z,97.71
2022-10-06T12:59:20.829Z,95.62
2022-10-06T13:02:19.955Z,94.14
2022-10-06T13:04:54.471Z,95.01
2022-10-06T13:07:28.949Z,92.18
2022-10-06T13:10:19.299Z,94.82
2022-10-06T13:12:50.748Z,91.28
2022-10-06T13:15:25.417Z,88.94
2022-10-06T13:18:13.877Z,87.27
2022-10-06T13:20:49.630Z,85.91
2022-10-06T13:23:37.624Z,83.88
2022-10-06T13:26:08.930Z,84.80
2022-10-06T13:28:37.560Z,83.29
2022-10-06T13:31:26.931Z,82.22
2022-10-06T13:34:10.415Z,83.21
2022-10-06T13:36:41.141Z,80.30
2022-10-06T13:39:14.571Z,78.92
2022-10-06T13:41:52.989Z,78.59
2022-10-06T13:44:35.144Z,78.75
2022-10-06T13:47:24.734Z,78.92
2022-10-06T13:50:06.873Z,79.12
2022-10-06T13:52:43.943Z,79.28
2022-10-06T13:55:19.169Z,79.77
2022-10-06T13:58:09.273Z,80.00
2022-10-06T14:00:58.663Z,78.24
2022-10-06T14:03:37.317Z,78.60
2022-10-06T14:06:08.833Z,77.67
2022-10-06T14:08:37.007Z,78.78
2022-10-06T14:11:09.011Z,78.61
2022-10-06T14:13:43.444Z,79.47
2022-10-06T14:16:20.268Z,78.95
2022-10-06T14:19:03.584Z,81.07
2022-10-06T14:21:39.928Z,81.73
2022-10-06T14:24:17.017Z,81.21
2022-10-06T14:26:46.209Z,82.17
2022-10-06T14:29:14.819Z,81.31
2022-10-06T14:31:44.650Z,79.37
2022-10-06T14:34:17.536Z,81.00
2022-10-06T14:36:55.517Z,79.65
2022-10-06T14:39:23.849Z,80.31
2022-10-06T14:41:52.490Z,81.43
2022-10-06T14:44:21.143Z,80.16
2022-10-06T14:46:49.624Z,78.60
2022-10-06T14:49:18.199Z,78.40
2022-10-06T14:51:46.817Z,79.28
2022-10-06T14:54:15.915Z,77.05
2022-10-06T14:56:44.240Z,75.78
2022-10-06T14:59:17.444Z,74.61
2022-10-06T15:01:47.307Z,73.80
2022-10-06T15:04:20.743Z,76.28
2022-10-06T15:07:07.311Z,75.64
2022-10-06T15:09:35.905Z,75.85
2022-10-06T15:12:05.341Z,77.15
2022-10-06T15:14:35.130Z,77.66
2022-10-06T15:17:03.729Z,78.78
2022-10-06T15:19:32.197Z,79.49
2022-10-06T15:22:01.381Z,80.92
2022-10-06T15:24:29.422Z,81.99
2022-10-06T15:27:15.728Z,82.75
2022-10-06T15:29:43.985Z,84.22
2022-10-06T15:32:12.129Z,84.50
2022-10-06T15:34:39.947Z,84.62
2022-10-06T15:37:08.216Z,85.78
2022-10-06T15:39:37.991Z,85.78
2022-10-06T15:42:08.250Z,85.83
2022-10-06T15:44:36.279Z,86.01
2022-10-06T15:47:06.371Z,85.86
2022-10-06T15:49:38.851Z,86.16
2022-10-06T15:52:08.384Z,86.11
2022-10-06T15:54:41.319Z,86.60
2022-10-06T15:57:12.161Z,86.67
2022-10-06T15:59:41.968Z,87.96
2022-10-06T16:02:16.388Z,88.23
2022-10-06T16:05:09.629Z,88.68
2022-10-06T16:07:38.438Z,88.96
2022-10-06T16:10:07.003Z,89.39
2022-10-06T16:12:35.047Z,89.47
2022-10-06T16:15:04.249Z,89.58
2022-10-06T16:17:32.224Z,90.17
2022-10-06T16:20:00.350Z,90.43
2022-10-06T16:22:28.998Z,91.48
2022-10-06T16:24:56.869Z,91.61
2022-10-06T16:27:25.936Z,92.09
2022-10-06T16:29:56.089Z,92.90
2022-10-06T16:32:24.297Z,93.20
2022-10-06T16:34:52.930Z,93.74
2022-10-06T16:37:21.455Z,94.35
2022-10-06T16:39:49.240Z,95.17
2022-10-06T16:42:18.315Z,95.57
2022-10-06T16:44:46.440Z,96.23
2022-10-06T16:47:14.924Z,96.32
2022-10-06T16:49:43.415Z,96.76
2022-10-06T16:52:11.352Z,97.83
2022-10-06T16:54:39.247Z,98.04
2022-10-06T16:57:07.823Z,98.08
2022-10-06T16:59:35.904Z,99.82
2022-10-06T17:02:03.584Z,100.00
2022-10-06T17:04:32.004Z,100.00
2022-10-06T17:07:00.024Z,100.00
2022-10-06T17:09:32.517Z,100.00
2022-10-06T17:12:02.179Z,100.00
2022-10-06T17:14:31.646Z,100.00
2022-10-06T17:17:02.513Z,100.00
2022-10-06T17:19:31.707Z,100.00
2022-10-06T17:22:00.164Z,100.00
2022-10-06T17:24:31.701Z,100.00
2022-10-06T17:26:59.562Z,100.00
2022-10-06T17:29:28.430Z,100.00
2022-10-06T17:31:59.671Z,100.00
2022-10-06T17:34:33.500Z,100.00
2022-10-06T17:37:02.348Z,100.00
2022-10-06T17:39:31.067Z,100.00
2022-10-06T17:41:59.648Z,100.00
2022-10-06T17:44:30.376Z,100.00
2022-10-06T17:47:00.913Z,100.00
2022-10-06T17:49:33.064Z,100.00
2022-10-06T17:52:02.315Z,100.00
2022-10-06T17:54:33.585Z,100.00
2022-10-06T17:57:01.451Z,100.00
2022-10-06T17:59:32.094Z,100.00
2022-10-06T18:02:03.030Z,100.00
2022-10-06T18:04:34.291Z,100.00
2022-10-06T18:07:03.726Z,100.00
2022-10-06T18:09:31.821Z,100.00
2022-10-06T18:12:01.284Z,100.00
2022-10-06T18:14:34.904Z,100.00
2022-10-06T18:17:04.300Z,100.00
2022-10-06T18:19:34.883Z,100.00
2022-10-06T18:22:10.919Z,100.00
2022-10-06T18:24:40.256Z,100.00
2022-10-06T18:27:09.260Z,100.00
2022-10-06T18:29:38.931Z,100.00
2022-10-06T18:37:44.555Z,100.00
2022-10-06T18:40:14.973Z,100.00
2022-10-06T18:42:43.204Z,100.00
2022-10-06T18:45:35.424Z,100.00
2022-10-06T18:48:23.369Z,100.00
2022-10-06T18:51:04.233Z,100.00
2022-10-06T18:53:33.775Z,100.00
2022-10-06T18:56:02.314Z,100.00
2022-10-06T18:58:30.070Z,100.00
2022-10-06T19:00:58.894Z,100.00
2022-10-06T19:03:28.439Z,100.00
2022-10-06T19:05:56.230Z,100.00
2022-10-06T19:08:24.488Z,100.00
2022-10-06T19:11:10.803Z,100.00
2022-10-06T19:13:42.537Z,100.00
2022-10-06T19:16:11.123Z,100.00
2022-10-06T19:18:39.930Z,100.00
2022-10-06T19:21:09.882Z,100.00
2022-10-06T19:23:39.251Z,100.00
2022-10-06T19:26:09.707Z,100.00
2022-10-06T19:28:38.175Z,100.00
2022-10-06T19:31:18.728Z,100.00
2022-10-06T19:33:50.467Z,100.00
2022-10-06T19:36:19.035Z,100.00
2022-10-06T19:38:47.452Z,100.00
2022-10-06T19:41:33.991Z,100.00
2022-10-06T19:44:03.306Z,100.00
2022-10-06T19:46:31.265Z,100.00
2022-10-06T19:48:59.624Z,100.00
2022-10-06T19:51:28.331Z,100.00
2022-10-06T19:53:56.400Z,100.00
2022-10-06T19:56:25.952Z,100.00
2022-10-06T19:58:53.984Z,100.00
2022-10-06T20:01:21.517Z,100.00
2022-10-06T20:03:49.307Z,100.00
2022-10-06T20:06:17.187Z,100.00
2022-10-06T20:08:44.706Z,100.00
2022-10-06T20:11:14.801Z,100.00
2022-10-06T20:13:43.160Z,100.00
2022-10-06T20:16:14.678Z,100.00
2022-10-06T20:18:43.056Z,100.00
2022-10-06T20:21:18.992Z,100.00
2022-10-06T20:23:52.095Z,100.00
2022-10-06T20:26:24.218Z,100.00
2022-10-06T20:28:52.351Z,100.00
2022-10-06T20:31:30.222Z,100.00
2022-10-06T20:34:00.070Z,100.00
2022-10-06T20:36:29.551Z,100.00
2022-10-06T20:39:16.089Z,100.00
2022-10-06T20:41:44.254Z,100.00
2022-10-06T20:44:13.745Z,100.00
2022-10-06T20:46:44.526Z,100.00
2022-10-06T20:49:17.578Z,100.00
2022-10-06T20:51:51.687Z,100.00
2022-10-06T20:54:35.211Z,100.00
2022-10-06T20:57:07.559Z,100.00
2022-10-06T20:59:37.920Z,100.00
2022-10-06T21:02:07.418Z,100.00
2022-10-06T21:04:35.696Z,100.00
2022-10-06T21:07:08.930Z,100.00
2022-10-06T21:09:38.817Z,100.00
2022-10-06T21:12:07.357Z,100.00
2022-10-06T21:14:35.471Z,100.00
2022-10-06T21:17:03.939Z,100.00
2022-10-06T21:19:34.531Z,100.00
2022-10-06T21:22:03.329Z,100.00
2022-10-06T21:24:31.697Z,100.00
2022-10-06T21:27:00.458Z,100.00
2022-10-06T21:29:28.387Z,100.00
2022-10-06T21:31:56.591Z,100.00
2022-10-06T21:34:24.526Z,100.00
2022-10-06T21:36:52.843Z,100.00
2022-10-06T21:39:20.939Z,100.00
2022-10-06T21:41:49.249Z,100.00
2022-10-06T21:44:19.003Z,100.00
2022-10-06T21:46:50.608Z,100.00
2022-10-06T21:49:23.110Z,100.00
2022-10-06T21:51:53.872Z,100.00
2022-10-06T21:54:23.331Z,100.00
2022-10-06T21:56:52.898Z,100.00
2022-10-06T21:59:21.479Z,100.00
2022-10-06T22:01:51.173Z,100.00
2022-10-06T22:04:20.088Z,100.00
2022-10-06T22:06:51.419Z,100.00
2022-10-06T22:09:20.916Z,100.00
2022-10-06T22:11:49.629Z,100.00
2022-10-06T22:14:19.250Z,100.00
2022-10-06T22:16:48.668Z,100.00
2022-10-06T22:19:18.317Z,100.00
2022-10-06T22:21:48.705Z,100.00
2022-10-06T22:24:19.692Z,100.00
2022-10-06T22:26:49.035Z,100.00
2022-10-06T22:29:18.771Z,100.00
2022-10-06T22:31:48.423Z,100.00
2022-10-06T22:34:20.638Z,100.00
2022-10-06T22:36:48.825Z,100.00
2022-10-06T22:39:18.374Z,100.00
2022-10-06T22:41:46.453Z,100.00
2022-10-06T22:44:15.164Z,100.00
2022-10-06T22:46:43.278Z,100.00
2022-10-06T22:49:11.611Z,100.00
2022-10-06T22:51:40.267Z,100.00
2022-10-06T22:54:08.538Z,100.00
2022-10-06T22:56:36.675Z,100.00
2022-10-06T22:59:04.813Z,100.00
2022-10-06T23:01:32.422Z,100.00
2022-10-06T23:04:02.084Z,100.00
2022-10-06T23:06:31.705Z,100.00
2022-10-06T23:09:00.225Z,100.00
2022-10-06T23:11:29.123Z,100.00
2022-10-06T23:13:57.868Z,100.00
2022-10-06T23:16:26.288Z,100.00
2022-10-06T23:18:55.575Z,100.00
2022-10-06T23:21:27.505Z,100.00
2022-10-06T23:23:58.684Z,100.00
2022-10-06T23:26:28.171Z,100.00
2022-10-06T23:28:59.427Z,100.00
2022-10-06T23:31:29.141Z,100.00
2022-10-06T23:33:57.611Z,100.00
2022-10-06T23:36:26.364Z,100.00
2022-10-06T23:38:55.966Z,100.00
2022-10-06T23:41:24.234Z,100.00
2022-10-06T23:43:52.544Z,100.00
2022-10-06T23:46:20.737Z,100.00
2022-10-06T23:48:49.233Z,100.00
2022-10-06T23:51:17.065Z,100.00
2022-10-06T23:53:45.729Z,100.00
2022-10-06T23:56:14.054Z,100.00
2022-10-06T23:58:42.904Z,100.00
